Archival Weather

Heathrow

London, United Kingdom (EGLL)

Report from: Thursday, September 21, 2023 1:50 PM BST
Current time: Sunday, July 14, 2024 12:26 PM BST

Current weather – Weather history – Daily summaries
Weather forecast

Present weatherLight rain
Temperature15.0°C (59.0°F)
Dew point12.0°C (53.6°F)
Winds 8 kts (4.1 m/s, 9.2 mph) West-Southwest (240°)
Visibility4.3 mi. (7 km)
Clouds Few clouds 3,200 ft. (975 m)
Altimeter29.38 in.Hg (995 mB)
Relative humidity82 %
Density altitude818 ft. (249 m)
Remarks Fully automated report
Flight conditions Marginal Visual Meteorological Conditions
Raw dataEGLL 211250Z AUTO 24008KT 7000 -RA FEW032/// //////CB 15/12 Q0995 RERA
An error has occurred. This application may no longer respond until reloaded. Reload 🗙